sensor_id;sensor_type;location;lat;lon;timestamp;P1;durP1;ratioP1;P2;durP2;ratioP2
12224;SDS011;6175;50.956;11.064;2023-01-06T00:02:20;1.98;;;1.60;;
12224;SDS011;6175;50.956;11.064;2023-01-06T00:04:48;4.63;;;1.63;;
12224;SDS011;6175;50.956;11.064;2023-01-06T00:07:16;3.20;;;1.42;;
12224;SDS011;6175;50.956;11.064;2023-01-06T00:09:43;2.17;;;1.52;;
12224;SDS011;6175;50.956;11.064;2023-01-06T00:12:10;3.72;;;1.40;;
12224;SDS011;6175;50.956;11.064;2023-01-06T00:14:37;2.75;;;1.13;;
12224;SDS011;6175;50.956;11.064;2023-01-06T00:17:06;3.00;;;1.75;;
12224;SDS011;6175;50.956;11.064;2023-01-06T00:19:33;2.25;;;1.30;;
12224;SDS011;6175;50.956;11.064;2023-01-06T00:22:02;2.50;;;1.27;;
12224;SDS011;6175;50.956;11.064;2023-01-06T00:24:29;3.70;;;1.65;;
12224;SDS011;6175;50.956;11.064;2023-01-06T00:26:57;2.22;;;1.67;;
12224;SDS011;6175;50.956;11.064;2023-01-06T00:29:24;2.55;;;1.60;;
12224;SDS011;6175;50.956;11.064;2023-01-06T00:31:51;3.00;;;1.55;;
12224;SDS011;6175;50.956;11.064;2023-01-06T00:34:18;1.92;;;1.55;;
12224;SDS011;6175;50.956;11.064;2023-01-06T00:36:45;2.67;;;1.30;;
12224;SDS011;6175;50.956;11.064;2023-01-06T00:39:14;2.15;;;1.30;;
12224;SDS011;6175;50.956;11.064;2023-01-06T00:41:41;2.70;;;1.48;;
12224;SDS011;6175;50.956;11.064;2023-01-06T00:44:26;3.35;;;1.58;;
12224;SDS011;6175;50.956;11.064;2023-01-06T00:46:53;1.35;;;1.08;;
12224;SDS011;6175;50.956;11.064;2023-01-06T00:49:20;2.60;;;1.33;;
12224;SDS011;6175;50.956;11.064;2023-01-06T00:51:47;1.38;;;1.08;;
12224;SDS011;6175;50.956;11.064;2023-01-06T00:54:16;2.95;;;1.27;;
12224;SDS011;6175;50.956;11.064;2023-01-06T00:56:44;1.08;;;0.93;;
12224;SDS011;6175;50.956;11.064;2023-01-06T00:59:13;3.25;;;1.20;;
12224;SDS011;6175;50.956;11.064;2023-01-06T01:01:41;1.67;;;1.23;;
12224;SDS011;6175;50.956;11.064;2023-01-06T01:04:09;1.45;;;1.17;;
12224;SDS011;6175;50.956;11.064;2023-01-06T01:06:36;2.67;;;0.90;;
12224;SDS011;6175;50.956;11.064;2023-01-06T01:09:04;1.25;;;1.10;;
12224;SDS011;6175;50.956;11.064;2023-01-06T01:11:33;1.67;;;1.20;;
12224;SDS011;6175;50.956;11.064;2023-01-06T01:14:18;2.22;;;1.13;;
12224;SDS011;6175;50.956;11.064;2023-01-06T01:16:46;2.38;;;1.38;;
12224;SDS011;6175;50.956;11.064;2023-01-06T01:19:13;1.55;;;1.00;;
12224;SDS011;6175;50.956;11.064;2023-01-06T01:21:40;2.60;;;1.30;;
12224;SDS011;6175;50.956;11.064;2023-01-06T01:24:07;2.22;;;1.15;;
12224;SDS011;6175;50.956;11.064;2023-01-06T01:26:36;1.50;;;1.00;;
12224;SDS011;6175;50.956;11.064;2023-01-06T01:29:03;2.22;;;1.20;;
12224;SDS011;6175;50.956;11.064;2023-01-06T01:31:30;3.00;;;1.48;;
12224;SDS011;6175;50.956;11.064;2023-01-06T01:33:58;4.55;;;1.38;;
12224;SDS011;6175;50.956;11.064;2023-01-06T01:36:25;1.70;;;1.10;;
12224;SDS011;6175;50.956;11.064;2023-01-06T01:38:54;2.35;;;1.23;;
12224;SDS011;6175;50.956;11.064;2023-01-06T01:41:21;2.72;;;1.10;;
12224;SDS011;6175;50.956;11.064;2023-01-06T01:43:51;1.58;;;1.38;;
12224;SDS011;6175;50.956;11.064;2023-01-06T01:46:20;1.90;;;1.05;;
12224;SDS011;6175;50.956;11.064;2023-01-06T01:48:50;1.13;;;1.00;;
12224;SDS011;6175;50.956;11.064;2023-01-06T01:51:24;1.80;;;1.00;;
12224;SDS011;6175;50.956;11.064;2023-01-06T01:53:54;1.13;;;1.02;;
12224;SDS011;6175;50.956;11.064;2023-01-06T01:56:25;1.73;;;1.02;;
12224;SDS011;6175;50.956;11.064;2023-01-06T01:58:58;1.40;;;1.10;;
12224;SDS011;6175;50.956;11.064;2023-01-06T02:01:26;1.33;;;1.00;;
12224;SDS011;6175;50.956;11.064;2023-01-06T02:03:54;3.30;;;1.10;;
12224;SDS011;6175;50.956;11.064;2023-01-06T02:06:21;0.80;;;0.80;;
12224;SDS011;6175;50.956;11.064;2023-01-06T02:08:51;1.55;;;0.88;;
12224;SDS011;6175;50.956;11.064;2023-01-06T02:11:22;1.42;;;1.00;;
12224;SDS011;6175;50.956;11.064;2023-01-06T02:13:49;0.70;;;0.70;;
12224;SDS011;6175;50.956;11.064;2023-01-06T02:16:28;1.35;;;0.82;;
12224;SDS011;6175;50.956;11.064;2023-01-06T02:18:58;0.73;;;0.70;;
12224;SDS011;6175;50.956;11.064;2023-01-06T02:21:33;1.17;;;1.00;;
12224;SDS011;6175;50.956;11.064;2023-01-06T02:29:59;0.60;;;0.60;;
12224;SDS011;6175;50.956;11.064;2023-01-06T02:36:05;0.60;;;0.60;;
12224;SDS011;6175;50.956;11.064;2023-01-06T02:38:55;1.05;;;0.70;;
12224;SDS011;6175;50.956;11.064;2023-01-06T02:41:31;0.80;;;0.80;;
12224;SDS011;6175;50.956;11.064;2023-01-06T02:44:05;1.42;;;0.93;;
12224;SDS011;6175;50.956;11.064;2023-01-06T02:46:40;1.20;;;0.60;;
12224;SDS011;6175;50.956;11.064;2023-01-06T02:49:36;0.88;;;0.88;;
12224;SDS011;6175;50.956;11.064;2023-01-06T02:52:10;0.70;;;0.70;;
12224;SDS011;6175;50.956;11.064;2023-01-06T02:54:43;0.68;;;0.68;;
12224;SDS011;6175;50.956;11.064;2023-01-06T02:57:17;0.95;;;0.77;;
12224;SDS011;6175;50.956;11.064;2023-01-06T02:59:51;0.88;;;0.88;;
12224;SDS011;6175;50.956;11.064;2023-01-06T03:02:23;1.42;;;0.80;;
12224;SDS011;6175;50.956;11.064;2023-01-06T03:04:54;1.50;;;0.70;;
12224;SDS011;6175;50.956;11.064;2023-01-06T03:07:24;0.57;;;0.57;;
12224;SDS011;6175;50.956;11.064;2023-01-06T03:09:54;1.20;;;1.10;;
12224;SDS011;6175;50.956;11.064;2023-01-06T03:12:24;0.70;;;0.70;;
12224;SDS011;6175;50.956;11.064;2023-01-06T03:14:57;0.68;;;0.68;;
12224;SDS011;6175;50.956;11.064;2023-01-06T03:17:24;1.17;;;0.82;;
12224;SDS011;6175;50.956;11.064;2023-01-06T03:19:51;0.85;;;0.70;;
12224;SDS011;6175;50.956;11.064;2023-01-06T03:22:20;0.80;;;0.80;;
12224;SDS011;6175;50.956;11.064;2023-01-06T03:24:48;1.42;;;0.95;;
12224;SDS011;6175;50.956;11.064;2023-01-06T03:27:15;0.93;;;0.93;;
12224;SDS011;6175;50.956;11.064;2023-01-06T03:29:45;0.88;;;0.82;;
12224;SDS011;6175;50.956;11.064;2023-01-06T03:32:15;2.17;;;0.82;;
12224;SDS011;6175;50.956;11.064;2023-01-06T03:34:50;1.30;;;1.10;;
12224;SDS011;6175;50.956;11.064;2023-01-06T03:37:33;1.45;;;1.10;;
12224;SDS011;6175;50.956;11.064;2023-01-06T03:40:08;2.13;;;1.00;;
12224;SDS011;6175;50.956;11.064;2023-01-06T03:42:43;1.10;;;1.10;;
12224;SDS011;6175;50.956;11.064;2023-01-06T03:45:37;1.15;;;1.05;;
12224;SDS011;6175;50.956;11.064;2023-01-06T03:48:10;1.00;;;0.90;;
12224;SDS011;6175;50.956;11.064;2023-01-06T03:50:45;0.73;;;0.73;;
12224;SDS011;6175;50.956;11.064;2023-01-06T03:53:21;1.10;;;1.00;;
12224;SDS011;6175;50.956;11.064;2023-01-06T03:55:56;0.75;;;0.75;;
12224;SDS011;6175;50.956;11.064;2023-01-06T03:58:29;1.30;;;1.20;;
12224;SDS011;6175;50.956;11.064;2023-01-06T04:00:56;1.20;;;1.10;;
12224;SDS011;6175;50.956;11.064;2023-01-06T04:03:24;1.20;;;1.10;;
12224;SDS011;6175;50.956;11.064;2023-01-06T04:05:51;1.25;;;1.15;;
12224;SDS011;6175;50.956;11.064;2023-01-06T04:08:20;1.42;;;0.80;;
12224;SDS011;6175;50.956;11.064;2023-01-06T04:10:47;1.15;;;1.00;;
12224;SDS011;6175;50.956;11.064;2023-01-06T04:13:14;0.90;;;0.90;;
12224;SDS011;6175;50.956;11.064;2023-01-06T04:15:40;0.75;;;0.75;;
12224;SDS011;6175;50.956;11.064;2023-01-06T04:18:08;1.20;;;1.10;;
12224;SDS011;6175;50.956;11.064;2023-01-06T04:20:35;1.52;;;1.10;;
12224;SDS011;6175;50.956;11.064;2023-01-06T04:23:02;0.93;;;0.90;;
12224;SDS011;6175;50.956;11.064;2023-01-06T04:25:31;1.40;;;0.80;;
12224;SDS011;6175;50.956;11.064;2023-01-06T04:27:57;0.80;;;0.80;;
12224;SDS011;6175;50.956;11.064;2023-01-06T04:30:24;0.75;;;0.75;;
12224;SDS011;6175;50.956;11.064;2023-01-06T04:32:51;0.80;;;0.80;;
12224;SDS011;6175;50.956;11.064;2023-01-06T04:35:19;0.60;;;0.60;;
12224;SDS011;6175;50.956;11.064;2023-01-06T04:37:46;0.68;;;0.68;;
12224;SDS011;6175;50.956;11.064;2023-01-06T04:40:13;0.90;;;0.90;;
12224;SDS011;6175;50.956;11.064;2023-01-06T04:42:41;0.85;;;0.85;;
12224;SDS011;6175;50.956;11.064;2023-01-06T04:45:26;0.85;;;0.85;;
12224;SDS011;6175;50.956;11.064;2023-01-06T04:47:53;0.95;;;0.95;;
12224;SDS011;6175;50.956;11.064;2023-01-06T04:50:20;0.80;;;0.80;;
12224;SDS011;6175;50.956;11.064;2023-01-06T04:52:47;0.82;;;0.82;;
12224;SDS011;6175;50.956;11.064;2023-01-06T04:55:15;1.00;;;0.90;;
12224;SDS011;6175;50.956;11.064;2023-01-06T04:57:43;1.50;;;1.00;;
12224;SDS011;6175;50.956;11.064;2023-01-06T05:00:11;1.40;;;1.00;;
12224;SDS011;6175;50.956;11.064;2023-01-06T05:02:38;1.30;;;1.20;;
12224;SDS011;6175;50.956;11.064;2023-01-06T05:05:05;1.48;;;1.38;;
12224;SDS011;6175;50.956;11.064;2023-01-06T05:07:32;1.27;;;0.93;;
12224;SDS011;6175;50.956;11.064;2023-01-06T05:09:59;0.90;;;0.90;;
12224;SDS011;6175;50.956;11.064;2023-01-06T05:12:27;0.90;;;0.90;;
12224;SDS011;6175;50.956;11.064;2023-01-06T05:14:55;1.15;;;1.15;;
12224;SDS011;6175;50.956;11.064;2023-01-06T05:17:22;1.00;;;1.00;;
12224;SDS011;6175;50.956;11.064;2023-01-06T05:19:49;1.27;;;1.17;;
12224;SDS011;6175;50.956;11.064;2023-01-06T05:22:16;1.15;;;1.05;;
12224;SDS011;6175;50.956;11.064;2023-01-06T05:24:43;1.05;;;0.95;;
12224;SDS011;6175;50.956;11.064;2023-01-06T05:27:11;1.38;;;0.90;;
12224;SDS011;6175;50.956;11.064;2023-01-06T05:29:38;0.95;;;0.80;;
12224;SDS011;6175;50.956;11.064;2023-01-06T05:32:06;0.70;;;0.70;;
12224;SDS011;6175;50.956;11.064;2023-01-06T05:34:34;1.38;;;0.95;;
12224;SDS011;6175;50.956;11.064;2023-01-06T05:37:01;0.70;;;0.70;;
12224;SDS011;6175;50.956;11.064;2023-01-06T05:39:28;1.02;;;1.02;;
12224;SDS011;6175;50.956;11.064;2023-01-06T05:41:55;1.15;;;1.10;;
12224;SDS011;6175;50.956;11.064;2023-01-06T05:44:22;1.70;;;1.20;;
12224;SDS011;6175;50.956;11.064;2023-01-06T05:46:49;1.40;;;1.23;;
12224;SDS011;6175;50.956;11.064;2023-01-06T05:49:17;0.73;;;0.73;;
12224;SDS011;6175;50.956;11.064;2023-01-06T05:51:44;0.82;;;0.80;;
12224;SDS011;6175;50.956;11.064;2023-01-06T05:54:12;0.70;;;0.65;;
12224;SDS011;6175;50.956;11.064;2023-01-06T05:56:39;1.08;;;1.08;;
12224;SDS011;6175;50.956;11.064;2023-01-06T05:59:06;0.80;;;0.80;;
12224;SDS011;6175;50.956;11.064;2023-01-06T06:01:33;1.58;;;0.90;;
12224;SDS011;6175;50.956;11.064;2023-01-06T06:04:00;0.90;;;0.90;;
12224;SDS011;6175;50.956;11.064;2023-01-06T06:06:28;1.10;;;1.10;;
12224;SDS011;6175;50.956;11.064;2023-01-06T06:08:56;0.93;;;0.93;;
12224;SDS011;6175;50.956;11.064;2023-01-06T06:11:23;1.27;;;1.17;;
12224;SDS011;6175;50.956;11.064;2023-01-06T06:13:51;0.95;;;0.95;;
12224;SDS011;6175;50.956;11.064;2023-01-06T06:16:20;1.30;;;1.20;;
12224;SDS011;6175;50.956;11.064;2023-01-06T06:18:49;1.00;;;1.00;;
12224;SDS011;6175;50.956;11.064;2023-01-06T06:21:18;1.20;;;1.10;;
12224;SDS011;6175;50.956;11.064;2023-01-06T06:23:48;1.00;;;1.00;;
12224;SDS011;6175;50.956;11.064;2023-01-06T06:26:16;4.07;;;1.10;;
12224;SDS011;6175;50.956;11.064;2023-01-06T06:28:43;1.20;;;1.10;;
12224;SDS011;6175;50.956;11.064;2023-01-06T06:31:11;1.08;;;0.98;;
12224;SDS011;6175;50.956;11.064;2023-01-06T06:33:39;0.95;;;0.95;;
12224;SDS011;6175;50.956;11.064;2023-01-06T06:36:07;1.48;;;1.10;;
12224;SDS011;6175;50.956;11.064;2023-01-06T06:38:36;1.30;;;1.20;;
12224;SDS011;6175;50.956;11.064;2023-01-06T06:41:05;1.20;;;1.10;;
12224;SDS011;6175;50.956;11.064;2023-01-06T06:43:32;2.90;;;1.20;;
12224;SDS011;6175;50.956;11.064;2023-01-06T06:46:00;1.38;;;1.27;;
12224;SDS011;6175;50.956;11.064;2023-01-06T06:48:27;1.27;;;1.17;;
12224;SDS011;6175;50.956;11.064;2023-01-06T06:50:55;1.40;;;1.30;;
12224;SDS011;6175;50.956;11.064;2023-01-06T06:53:22;1.38;;;1.27;;
12224;SDS011;6175;50.956;11.064;2023-01-06T06:55:49;2.50;;;1.50;;
12224;SDS011;6175;50.956;11.064;2023-01-06T06:58:18;1.70;;;1.60;;
12224;SDS011;6175;50.956;11.064;2023-01-06T07:00:45;2.10;;;1.90;;
12224;SDS011;6175;50.956;11.064;2023-01-06T07:03:12;2.03;;;1.90;;
12224;SDS011;6175;50.956;11.064;2023-01-06T07:05:40;1.83;;;1.70;;
12224;SDS011;6175;50.956;11.064;2023-01-06T07:08:07;1.70;;;1.60;;
12224;SDS011;6175;50.956;11.064;2023-01-06T07:10:34;1.63;;;1.52;;
12224;SDS011;6175;50.956;11.064;2023-01-06T07:13:02;1.85;;;1.60;;
12224;SDS011;6175;50.956;11.064;2023-01-06T07:15:31;1.63;;;1.52;;
12224;SDS011;6175;50.956;11.064;2023-01-06T07:17:58;1.35;;;1.25;;
12224;SDS011;6175;50.956;11.064;2023-01-06T07:20:26;1.42;;;1.20;;
12224;SDS011;6175;50.956;11.064;2023-01-06T07:22:53;1.55;;;1.30;;
12224;SDS011;6175;50.956;11.064;2023-01-06T07:25:21;1.00;;;1.00;;
12224;SDS011;6175;50.956;11.064;2023-01-06T07:27:51;0.75;;;0.75;;
12224;SDS011;6175;50.956;11.064;2023-01-06T07:30:19;0.88;;;0.88;;
12224;SDS011;6175;50.956;11.064;2023-01-06T07:32:48;1.15;;;0.80;;
12224;SDS011;6175;50.956;11.064;2023-01-06T07:35:15;0.90;;;0.90;;
12224;SDS011;6175;50.956;11.064;2023-01-06T07:37:43;1.08;;;0.88;;
12224;SDS011;6175;50.956;11.064;2023-01-06T07:40:10;1.20;;;1.10;;
12224;SDS011;6175;50.956;11.064;2023-01-06T07:42:38;0.88;;;0.88;;
12224;SDS011;6175;50.956;11.064;2023-01-06T07:45:05;1.30;;;1.20;;
12224;SDS011;6175;50.956;11.064;2023-01-06T07:47:33;0.68;;;0.68;;
12224;SDS011;6175;50.956;11.064;2023-01-06T07:50:01;0.90;;;0.77;;
12224;SDS011;6175;50.956;11.064;2023-01-06T07:52:29;1.42;;;1.10;;
12224;SDS011;6175;50.956;11.064;2023-01-06T07:54:56;0.82;;;0.80;;
12224;SDS011;6175;50.956;11.064;2023-01-06T07:57:23;0.98;;;0.80;;
12224;SDS011;6175;50.956;11.064;2023-01-06T07:59:51;1.27;;;0.85;;
12224;SDS011;6175;50.956;11.064;2023-01-06T08:02:19;0.65;;;0.60;;
12224;SDS011;6175;50.956;11.064;2023-01-06T08:04:46;1.13;;;1.05;;
12224;SDS011;6175;50.956;11.064;2023-01-06T08:07:15;0.88;;;0.88;;
12224;SDS011;6175;50.956;11.064;2023-01-06T08:09:43;1.00;;;0.90;;
12224;SDS011;6175;50.956;11.064;2023-01-06T08:12:10;1.20;;;1.10;;
12224;SDS011;6175;50.956;11.064;2023-01-06T08:14:37;1.48;;;0.85;;
12224;SDS011;6175;50.956;11.064;2023-01-06T08:17:04;1.08;;;1.00;;
12224;SDS011;6175;50.956;11.064;2023-01-06T08:19:31;3.08;;;1.10;;
12224;SDS011;6175;50.956;11.064;2023-01-06T08:21:59;1.30;;;1.20;;
12224;SDS011;6175;50.956;11.064;2023-01-06T08:24:28;1.20;;;1.10;;
12224;SDS011;6175;50.956;11.064;2023-01-06T08:26:55;1.20;;;1.00;;
12224;SDS011;6175;50.956;11.064;2023-01-06T08:29:22;1.13;;;1.08;;
12224;SDS011;6175;50.956;11.064;2023-01-06T08:31:49;1.00;;;0.95;;
12224;SDS011;6175;50.956;11.064;2023-01-06T08:34:16;1.20;;;0.90;;
12224;SDS011;6175;50.956;11.064;2023-01-06T08:36:44;0.57;;;0.57;;
12224;SDS011;6175;50.956;11.064;2023-01-06T08:39:11;0.70;;;0.70;;
12224;SDS011;6175;50.956;11.064;2023-01-06T08:41:41;1.08;;;0.80;;
12224;SDS011;6175;50.956;11.064;2023-01-06T08:44:08;1.10;;;1.00;;
12224;SDS011;6175;50.956;11.064;2023-01-06T08:46:35;0.80;;;0.80;;
12224;SDS011;6175;50.956;11.064;2023-01-06T08:49:03;0.88;;;0.88;;
12224;SDS011;6175;50.956;11.064;2023-01-06T08:51:30;0.60;;;0.60;;
12224;SDS011;6175;50.956;11.064;2023-01-06T08:53:58;0.70;;;0.70;;
12224;SDS011;6175;50.956;11.064;2023-01-06T08:56:26;0.70;;;0.70;;
12224;SDS011;6175;50.956;11.064;2023-01-06T08:58:57;0.60;;;0.60;;
12224;SDS011;6175;50.956;11.064;2023-01-06T09:01:26;0.65;;;0.65;;
12224;SDS011;6175;50.956;11.064;2023-01-06T09:03:55;0.70;;;0.70;;
12224;SDS011;6175;50.956;11.064;2023-01-06T09:06:23;0.60;;;0.60;;
12224;SDS011;6175;50.956;11.064;2023-01-06T09:08:50;0.50;;;0.50;;
12224;SDS011;6175;50.956;11.064;2023-01-06T09:11:17;0.95;;;0.82;;
12224;SDS011;6175;50.956;11.064;2023-01-06T09:13:45;0.50;;;0.50;;
12224;SDS011;6175;50.956;11.064;2023-01-06T09:16:13;2.42;;;1.00;;
12224;SDS011;6175;50.956;11.064;2023-01-06T09:18:40;2.47;;;0.90;;
12224;SDS011;6175;50.956;11.064;2023-01-06T09:21:12;0.70;;;0.60;;
12224;SDS011;6175;50.956;11.064;2023-01-06T09:23:39;0.82;;;0.80;;
12224;SDS011;6175;50.956;11.064;2023-01-06T09:26:07;0.57;;;0.57;;
12224;SDS011;6175;50.956;11.064;2023-01-06T09:28:34;0.90;;;0.65;;
12224;SDS011;6175;50.956;11.064;2023-01-06T09:31:01;0.60;;;0.60;;
12224;SDS011;6175;50.956;11.064;2023-01-06T09:33:30;1.25;;;0.70;;
12224;SDS011;6175;50.956;11.064;2023-01-06T09:35:57;2.05;;;0.73;;
12224;SDS011;6175;50.956;11.064;2023-01-06T09:38:24;0.93;;;0.80;;
12224;SDS011;6175;50.956;11.064;2023-01-06T09:41:02;1.27;;;0.75;;
12224;SDS011;6175;50.956;11.064;2023-01-06T09:43:39;1.20;;;0.70;;
12224;SDS011;6175;50.956;11.064;2023-01-06T09:46:12;0.77;;;0.77;;
12224;SDS011;6175;50.956;11.064;2023-01-06T09:48:44;0.73;;;0.57;;
12224;SDS011;6175;50.956;11.064;2023-01-06T09:51:20;2.22;;;0.75;;
12224;SDS011;6175;50.956;11.064;2023-01-06T09:53:52;0.60;;;0.60;;
12224;SDS011;6175;50.956;11.064;2023-01-06T09:56:23;1.48;;;0.63;;
12224;SDS011;6175;50.956;11.064;2023-01-06T09:58:52;0.98;;;0.90;;
12224;SDS011;6175;50.956;11.064;2023-01-06T10:01:26;1.20;;;0.70;;
12224;SDS011;6175;50.956;11.064;2023-01-06T10:03:59;0.93;;;0.90;;
12224;SDS011;6175;50.956;11.064;2023-01-06T10:06:28;1.13;;;0.98;;
12224;SDS011;6175;50.956;11.064;2023-01-06T10:09:12;1.15;;;0.70;;
12224;SDS011;6175;50.956;11.064;2023-01-06T10:11:49;1.15;;;0.82;;
12224;SDS011;6175;50.956;11.064;2023-01-06T10:14:25;0.80;;;0.80;;
12224;SDS011;6175;50.956;11.064;2023-01-06T10:17:07;0.80;;;0.80;;
12224;SDS011;6175;50.956;11.064;2023-01-06T10:19:52;1.27;;;0.95;;
12224;SDS011;6175;50.956;11.064;2023-01-06T10:22:28;1.25;;;0.88;;
12224;SDS011;6175;50.956;11.064;2023-01-06T10:25:05;1.38;;;0.88;;
12224;SDS011;6175;50.956;11.064;2023-01-06T10:27:40;0.73;;;0.68;;
12224;SDS011;6175;50.956;11.064;2023-01-06T10:30:15;0.90;;;0.77;;
12224;SDS011;6175;50.956;11.064;2023-01-06T10:32:45;3.58;;;0.90;;
12224;SDS011;6175;50.956;11.064;2023-01-06T10:35:17;1.20;;;0.90;;
12224;SDS011;6175;50.956;11.064;2023-01-06T10:37:48;2.05;;;0.80;;
12224;SDS011;6175;50.956;11.064;2023-01-06T10:40:19;0.75;;;0.70;;
12224;SDS011;6175;50.956;11.064;2023-01-06T10:42:49;0.98;;;0.98;;
12224;SDS011;6175;50.956;11.064;2023-01-06T10:45:23;1.85;;;0.80;;
12224;SDS011;6175;50.956;11.064;2023-01-06T10:47:53;0.70;;;0.70;;
12224;SDS011;6175;50.956;11.064;2023-01-06T10:50:22;1.02;;;0.93;;
12224;SDS011;6175;50.956;11.064;2023-01-06T10:52:49;2.35;;;1.30;;
12224;SDS011;6175;50.956;11.064;2023-01-06T10:55:22;2.50;;;1.15;;
12224;SDS011;6175;50.956;11.064;2023-01-06T10:58:01;2.75;;;1.20;;
12224;SDS011;6175;50.956;11.064;2023-01-06T11:00:31;1.77;;;1.00;;
12224;SDS011;6175;50.956;11.064;2023-01-06T11:03:01;2.25;;;0.90;;
12224;SDS011;6175;50.956;11.064;2023-01-06T11:05:31;1.02;;;0.90;;
12224;SDS011;6175;50.956;11.064;2023-01-06T11:08:02;0.93;;;0.88;;
12224;SDS011;6175;50.956;11.064;2023-01-06T11:10:33;1.85;;;0.80;;
12224;SDS011;6175;50.956;11.064;2023-01-06T11:13:03;1.10;;;0.90;;
12224;SDS011;6175;50.956;11.064;2023-01-06T11:15:34;1.15;;;1.00;;
12224;SDS011;6175;50.956;11.064;2023-01-06T11:18:04;0.60;;;0.60;;
12224;SDS011;6175;50.956;11.064;2023-01-06T11:20:44;1.30;;;0.90;;
12224;SDS011;6175;50.956;11.064;2023-01-06T11:23:13;0.90;;;0.68;;
12224;SDS011;6175;50.956;11.064;2023-01-06T11:25:58;1.75;;;0.77;;
12224;SDS011;6175;50.956;11.064;2023-01-06T11:28:27;1.00;;;0.82;;
12224;SDS011;6175;50.956;11.064;2023-01-06T11:30:56;1.10;;;0.82;;
12224;SDS011;6175;50.956;11.064;2023-01-06T11:33:26;0.75;;;0.75;;
12224;SDS011;6175;50.956;11.064;2023-01-06T11:35:55;0.52;;;0.52;;
12224;SDS011;6175;50.956;11.064;2023-01-06T11:38:22;0.93;;;0.70;;
12224;SDS011;6175;50.956;11.064;2023-01-06T11:40:52;0.60;;;0.60;;
12224;SDS011;6175;50.956;11.064;2023-01-06T11:43:20;0.77;;;0.77;;
12224;SDS011;6175;50.956;11.064;2023-01-06T11:45:52;0.88;;;0.65;;
12224;SDS011;6175;50.956;11.064;2023-01-06T11:48:24;1.13;;;0.80;;
12224;SDS011;6175;50.956;11.064;2023-01-06T11:50:55;1.42;;;0.85;;
12224;SDS011;6175;50.956;11.064;2023-01-06T11:53:24;2.10;;;0.73;;
12224;SDS011;6175;50.956;11.064;2023-01-06T11:55:54;2.10;;;0.65;;
12224;SDS011;6175;50.956;11.064;2023-01-06T11:58:23;0.65;;;0.65;;
12224;SDS011;6175;50.956;11.064;2023-01-06T12:00:58;0.80;;;0.80;;
12224;SDS011;6175;50.956;11.064;2023-01-06T12:03:32;0.70;;;0.70;;
12224;SDS011;6175;50.956;11.064;2023-01-06T12:06:09;1.13;;;0.88;;
12224;SDS011;6175;50.956;11.064;2023-01-06T12:08:46;0.95;;;0.80;;
12224;SDS011;6175;50.956;11.064;2023-01-06T12:11:20;1.00;;;0.80;;
12224;SDS011;6175;50.956;11.064;2023-01-06T12:13:52;0.73;;;0.70;;
12224;SDS011;6175;50.956;11.064;2023-01-06T12:16:43;0.60;;;0.60;;
12224;SDS011;6175;50.956;11.064;2023-01-06T12:19:19;1.50;;;0.80;;
12224;SDS011;6175;50.956;11.064;2023-01-06T12:21:53;0.90;;;0.90;;
12224;SDS011;6175;50.956;11.064;2023-01-06T12:24:20;0.50;;;0.50;;
12224;SDS011;6175;50.956;11.064;2023-01-06T12:26:49;0.68;;;0.68;;
12224;SDS011;6175;50.956;11.064;2023-01-06T12:29:18;0.57;;;0.57;;
12224;SDS011;6175;50.956;11.064;2023-01-06T12:31:50;0.63;;;0.63;;
12224;SDS011;6175;50.956;11.064;2023-01-06T12:34:27;0.52;;;0.52;;
12224;SDS011;6175;50.956;11.064;2023-01-06T12:37:02;0.70;;;0.70;;
12224;SDS011;6175;50.956;11.064;2023-01-06T12:39:40;0.50;;;0.50;;
12224;SDS011;6175;50.956;11.064;2023-01-06T12:42:19;1.33;;;0.73;;
12224;SDS011;6175;50.956;11.064;2023-01-06T12:44:51;1.00;;;0.68;;
12224;SDS011;6175;50.956;11.064;2023-01-06T12:47:23;0.50;;;0.50;;
12224;SDS011;6175;50.956;11.064;2023-01-06T12:49:54;0.50;;;0.50;;
12224;SDS011;6175;50.956;11.064;2023-01-06T12:52:26;0.70;;;0.70;;
12224;SDS011;6175;50.956;11.064;2023-01-06T12:54:57;0.77;;;0.60;;
12224;SDS011;6175;50.956;11.064;2023-01-06T12:57:34;0.50;;;0.50;;
12224;SDS011;6175;50.956;11.064;2023-01-06T13:00:16;0.50;;;0.45;;
12224;SDS011;6175;50.956;11.064;2023-01-06T13:02:54;1.80;;;0.57;;
12224;SDS011;6175;50.956;11.064;2023-01-06T13:05:30;1.65;;;0.52;;
12224;SDS011;6175;50.956;11.064;2023-01-06T13:08:15;0.82;;;0.70;;
12224;SDS011;6175;50.956;11.064;2023-01-06T13:10:59;2.38;;;0.93;;
12224;SDS011;6175;50.956;11.064;2023-01-06T13:13:39;1.45;;;0.80;;
12224;SDS011;6175;50.956;11.064;2023-01-06T13:16:16;0.50;;;0.50;;
12224;SDS011;6175;50.956;11.064;2023-01-06T13:18:50;0.82;;;0.80;;
12224;SDS011;6175;50.956;11.064;2023-01-06T13:21:32;0.60;;;0.60;;
12224;SDS011;6175;50.956;11.064;2023-01-06T13:27:02;0.50;;;0.50;;
12224;SDS011;6175;50.956;11.064;2023-01-06T13:29:43;0.70;;;0.60;;
12224;SDS011;6175;50.956;11.064;2023-01-06T13:32:25;0.73;;;0.73;;
12224;SDS011;6175;50.956;11.064;2023-01-06T13:35:11;1.13;;;0.65;;
12224;SDS011;6175;50.956;11.064;2023-01-06T13:38:07;0.70;;;0.70;;
12224;SDS011;6175;50.956;11.064;2023-01-06T13:40:48;0.47;;;0.47;;
12224;SDS011;6175;50.956;11.064;2023-01-06T13:43:18;1.02;;;0.73;;
12224;SDS011;6175;50.956;11.064;2023-01-06T13:45:48;0.68;;;0.65;;
12224;SDS011;6175;50.956;11.064;2023-01-06T13:48:17;0.88;;;0.88;;
12224;SDS011;6175;50.956;11.064;2023-01-06T13:50:50;2.42;;;1.15;;
12224;SDS011;6175;50.956;11.064;2023-01-06T13:53:18;0.63;;;0.63;;
12224;SDS011;6175;50.956;11.064;2023-01-06T13:55:48;0.85;;;0.60;;
12224;SDS011;6175;50.956;11.064;2023-01-06T13:58:48;0.60;;;0.60;;
12224;SDS011;6175;50.956;11.064;2023-01-06T14:01:29;1.30;;;0.73;;
12224;SDS011;6175;50.956;11.064;2023-01-06T14:07:32;1.25;;;0.57;;
12224;SDS011;6175;50.956;11.064;2023-01-06T14:10:01;0.98;;;0.70;;
12224;SDS011;6175;50.956;11.064;2023-01-06T14:12:31;0.60;;;0.60;;
12224;SDS011;6175;50.956;11.064;2023-01-06T14:15:02;0.80;;;0.80;;
12224;SDS011;6175;50.956;11.064;2023-01-06T14:17:38;1.05;;;0.70;;
12224;SDS011;6175;50.956;11.064;2023-01-06T14:20:06;1.05;;;0.50;;
12224;SDS011;6175;50.956;11.064;2023-01-06T14:22:56;0.50;;;0.50;;
12224;SDS011;6175;50.956;11.064;2023-01-06T14:25:25;1.60;;;1.00;;
12224;SDS011;6175;50.956;11.064;2023-01-06T14:28:15;2.40;;;1.60;;
12224;SDS011;6175;50.956;11.064;2023-01-06T14:30:49;1.40;;;1.02;;
12224;SDS011;6175;50.956;11.064;2023-01-06T14:33:23;0.93;;;0.70;;
12224;SDS011;6175;50.956;11.064;2023-01-06T14:35:59;1.00;;;0.90;;
12224;SDS011;6175;50.956;11.064;2023-01-06T14:38:30;1.80;;;0.85;;
12224;SDS011;6175;50.956;11.064;2023-01-06T14:41:01;0.82;;;0.70;;
12224;SDS011;6175;50.956;11.064;2023-01-06T14:43:32;0.80;;;0.80;;
12224;SDS011;6175;50.956;11.064;2023-01-06T14:46:11;0.70;;;0.70;;
12224;SDS011;6175;50.956;11.064;2023-01-06T14:48:44;0.77;;;0.77;;
12224;SDS011;6175;50.956;11.064;2023-01-06T14:51:17;2.28;;;1.00;;
12224;SDS011;6175;50.956;11.064;2023-01-06T14:53:46;0.85;;;0.70;;
12224;SDS011;6175;50.956;11.064;2023-01-06T14:56:15;0.95;;;0.90;;
12224;SDS011;6175;50.956;11.064;2023-01-06T14:58:45;1.27;;;0.90;;
12224;SDS011;6175;50.956;11.064;2023-01-06T15:01:18;1.08;;;0.98;;
12224;SDS011;6175;50.956;11.064;2023-01-06T15:03:54;0.95;;;0.95;;
12224;SDS011;6175;50.956;11.064;2023-01-06T15:06:23;0.95;;;0.95;;
12224;SDS011;6175;50.956;11.064;2023-01-06T15:08:52;1.05;;;0.90;;
12224;SDS011;6175;50.956;11.064;2023-01-06T15:11:22;0.98;;;0.80;;
12224;SDS011;6175;50.956;11.064;2023-01-06T15:13:55;0.95;;;0.80;;
12224;SDS011;6175;50.956;11.064;2023-01-06T15:16:25;1.00;;;1.00;;
12224;SDS011;6175;50.956;11.064;2023-01-06T15:18:58;0.70;;;0.70;;
12224;SDS011;6175;50.956;11.064;2023-01-06T15:21:25;0.50;;;0.50;;
12224;SDS011;6175;50.956;11.064;2023-01-06T15:23:53;0.80;;;0.80;;
12224;SDS011;6175;50.956;11.064;2023-01-06T15:26:22;0.75;;;0.63;;